This demonstration page uses our WeatherBlox Daily Observations layout. Learn more.

38.89511, -77.03637

Hourly Observations for October 10, 2020

Temp ( °F °C ) Dew Point ( °F °C ) Humidity (%) Winds ( mph kmh ) Pressure ( in mb ) Visibility ( mi km ) Precip ( " mm )
12:52 am 00:52 Cloudy 60 15.6 54 12.2 80 80 S 9 15 30.14 1021 10 16.0934 0 0
1:52 am 01:52 Cloudy 61 16.1 54 12.2 78 78 SSW 8 13 30.13 1020 10 16.0934 0 0
2:52 am 02:52 Cloudy 61 16.1 55 12.8 81 81 S 10 17 30.11 1020 10 16.0934 0 0
3:52 am 03:52 Cloudy 61 16.1 54 12.2 78 78 S 12 19 30.09 1019 10 16.0934 0 0
4:52 am 04:52 Cloudy 61 16.1 54 12.2 78 78 S 12 19 30.08 1019 10 16.0934 0 0
5:52 am 05:52 Cloudy 60 15.6 55 12.8 84 84 SSW 6 9 30.09 1019 10 16.0934 0 0
6:52 am 06:52 Cloudy 60 15.6 55 12.8 84 84 SSW 6 9 30.09 1019 10 16.0934 0 0
7:52 am 07:52 Mostly Cloudy 61 16.1 56 13.3 84 84 S 8 13 30.09 1019 10 16.0934 0 0
8:52 am 08:52 Mostly Cloudy 62 16.7 57 13.9 84 84 S 6 9 30.1 1019 10 16.0934 0 0
9:52 am 09:52 Mostly Cloudy 64 17.8 58 14.4 81 81 S 8 13 30.08 1019 10 16.0934 0 0
10:52 am 10:52 Mostly Cloudy 67 19.4 59 15 76 76 SSW 9 15 30.08 1019 10 16.0934 0 0
11:52 am 11:52 Cloudy 67 19.4 60 15.6 79 79 S 8 13 30.07 1018 10 16.0934 0 0
12:52 pm 12:52 Mostly Cloudy 70 21.1 61 16.1 73 73 SSW 8 13 30.04 1017 10 16.0934 0 0
1:52 pm 13:52 Cloudy 72 22.2 63 17.2 73 73 SSW 10 17 30.01 1016 10 16.0934 0 0
2:52 pm 14:52 Cloudy 73 22.8 63 17.2 71 71 SSW 10 17 30 1016 10 16.0934 0 0
3:52 pm 15:52 Cloudy 72 22.2 63 17.2 73 73 SSW 12 19 30 1016 10 16.0934 0 0
4:52 pm 16:52 Cloudy 70 21.1 63 17.2 79 79 SSW 10 17 30 1016 10 16.0934 0 0
5:52 pm 17:52 Cloudy 70 21.1 63 17.2 79 79 SW 10 17 30.01 1016 10 16.0934 0 0
6:52 pm 18:52 Cloudy 69 20.6 63 17.2 81 81 SSW 8 13 30 1016 10 16.0934 0 0
7:52 pm 19:52 Cloudy 68 20 63 17.2 84 84 SSW 7 11 30 1016 10 16.0934 0 0
8:52 pm 20:52 Cloudy 68 20 63 17.2 84 84 S 8 13 30 1016 10 16.0934 0 0
9:52 pm 21:52 Cloudy 67 19.4 63 17.2 87 87 SSW 8 13 30.01 1016 10 16.0934 0 0
10:52 pm 22:52 Cloudy 67 19.4 63 17.2 87 87 S 5 7 30.02 1017 10 16.0934 0 0
11:52 pm 23:52 Cloudy 67 19.4 64 17.8 91 91 S 6 9 30.01 1016 10 16.0934 0 0

Powered by AerisWeather